La Crescent, Minnesota
Current Conditions -  °F | °C
As of 10:53 PM on Friday 24 Oct 2014 (Local Time) from KLSE Reporting Station
Overcast Overcast  
Wind Chill: 59°   Ceiling: 1000
Heat Index: 59°   Visibility: 7mi
Dew Point: 56°   Wind: 6mph
Humidity: 90%   Direction: 190°S
Pressure: 29.89"   Gusts: NA
Location:  43.83°N, 91.3°W
Report Text: KLSE 250353Z AUTO 19005KT 7SM OVC010 15/13 A2989 RMK AO2 SLP121 T01500133
Loading
Personal Weather Stations






























Interactive Weather Map
Tropical Storm Tracking
New forecast layout! Learn more

10-Day Weather Forecast

Advertisements
Track Severe Weather on mobile